createdAt,value
2023-03-06T00:01:08.410Z,38.57
2023-03-06T00:03:55.247Z,37.13
2023-03-06T00:06:40.795Z,37.97
2023-03-06T00:09:25.987Z,39.73
2023-03-06T00:12:11.691Z,38.63
2023-03-06T00:14:57.053Z,37.57
2023-03-06T00:17:42.691Z,38.77
2023-03-06T00:20:28.096Z,38.23
2023-03-06T00:23:13.995Z,35.30
2023-03-06T00:25:59.392Z,39.90
2023-03-06T00:28:44.968Z,39.00
2023-03-06T00:31:30.646Z,36.93
2023-03-06T00:34:16.127Z,36.53
2023-03-06T00:37:01.599Z,36.13
2023-03-06T00:39:47.452Z,33.80
2023-03-06T00:42:32.599Z,35.87
2023-03-06T00:45:18.249Z,38.03
2023-03-06T00:48:03.841Z,41.27
2023-03-06T00:50:49.082Z,37.17
2023-03-06T00:53:34.489Z,37.00
2023-03-06T00:56:20.133Z,33.60
2023-03-06T00:59:05.634Z,33.87
2023-03-06T01:01:51.285Z,37.87
2023-03-06T01:04:37.097Z,30.13
2023-03-06T01:07:23.110Z,29.53
2023-03-06T01:10:09.308Z,32.07
2023-03-06T01:12:55.317Z,35.97
2023-03-06T01:15:40.937Z,34.23
2023-03-06T01:18:26.613Z,32.83
2023-03-06T01:21:12.636Z,34.93
2023-03-06T01:23:57.802Z,33.77
2023-03-06T01:26:43.376Z,36.33
2023-03-06T01:29:29.378Z,34.13
2023-03-06T01:32:14.919Z,34.53
2023-03-06T01:35:00.523Z,31.93
2023-03-06T01:37:46.051Z,38.93
2023-03-06T01:40:33.474Z,35.50
2023-03-06T01:43:27.781Z,40.23
2023-03-06T01:46:34.037Z,36.72
2023-03-06T01:49:32.542Z,38.60
2023-03-06T01:52:21.846Z,33.57
2023-03-06T01:55:15.509Z,34.03
2023-03-06T01:58:05.811Z,36.77
2023-03-06T02:00:51.195Z,30.90
2023-03-06T02:03:37.273Z,31.80
2023-03-06T02:06:23.866Z,33.23
2023-03-06T02:09:10.395Z,36.37
2023-03-06T02:11:56.274Z,41.60
2023-03-06T02:14:43.256Z,36.13
2023-03-06T02:17:29.712Z,41.20
2023-03-06T02:20:20.942Z,36.77
2023-03-06T02:23:41.344Z,39.67
2023-03-06T02:26:28.212Z,37.83
2023-03-06T02:29:18.288Z,37.23
2023-03-06T02:32:04.556Z,36.40
2023-03-06T02:34:52.903Z,36.93
2023-03-06T02:37:38.469Z,36.13
2023-03-06T02:40:24.800Z,38.17
2023-03-06T02:43:13.178Z,35.47
2023-03-06T02:45:58.816Z,35.17
2023-03-06T02:48:44.534Z,34.03
2023-03-06T02:51:29.993Z,35.67
2023-03-06T02:54:18.357Z,36.87
2023-03-06T02:57:03.760Z,31.37
2023-03-06T02:59:49.024Z,40.87
2023-03-06T03:02:34.618Z,36.00
2023-03-06T03:05:20.431Z,37.57
2023-03-06T03:08:06.137Z,40.83
2023-03-06T03:10:51.946Z,38.77
2023-03-06T03:13:37.711Z,42.63
2023-03-06T03:16:23.296Z,41.47
2023-03-06T03:19:08.989Z,40.23
2023-03-06T03:21:54.664Z,36.33
2023-03-06T03:24:40.510Z,41.83
2023-03-06T03:27:25.670Z,39.80
2023-03-06T03:30:12.090Z,40.03
2023-03-06T03:32:57.758Z,34.30
2023-03-06T03:35:43.218Z,37.60
2023-03-06T03:38:29.004Z,37.10
2023-03-06T03:41:14.395Z,40.00
2023-03-06T03:44:00.192Z,36.03
2023-03-06T03:46:45.626Z,40.43
2023-03-06T03:49:30.794Z,38.07
2023-03-06T03:52:16.234Z,41.93
2023-03-06T03:55:01.836Z,40.23
2023-03-06T03:57:47.424Z,39.53
2023-03-06T04:00:32.801Z,41.57
2023-03-06T04:03:18.475Z,36.77
2023-03-06T04:06:03.932Z,40.30
2023-03-06T04:08:49.557Z,42.67
2023-03-06T04:11:34.809Z,42.73
2023-03-06T04:14:20.633Z,35.53
2023-03-06T04:17:05.831Z,36.97
2023-03-06T04:19:51.554Z,36.93
2023-03-06T04:22:36.757Z,35.37
2023-03-06T04:25:22.266Z,41.90
2023-03-06T04:28:08.884Z,38.13
2023-03-06T04:30:54.123Z,36.27
2023-03-06T04:33:39.709Z,38.90
2023-03-06T04:36:35.043Z,43.63
2023-03-06T04:39:20.360Z,43.47
2023-03-06T04:42:05.986Z,43.77
2023-03-06T04:44:51.401Z,37.33
2023-03-06T04:47:36.948Z,39.23
2023-03-06T04:50:23.098Z,42.43
2023-03-06T04:53:09.048Z,42.23
2023-03-06T04:55:54.231Z,40.40
2023-03-06T04:58:39.809Z,44.20
2023-03-06T05:01:25.328Z,38.73
2023-03-06T05:04:11.055Z,36.73
2023-03-06T05:06:56.530Z,38.60
2023-03-06T05:09:42.062Z,39.33
2023-03-06T05:12:27.666Z,36.47
2023-03-06T05:15:13.658Z,41.80
2023-03-06T05:17:59.516Z,38.73
2023-03-06T05:20:45.324Z,39.67
2023-03-06T05:23:32.299Z,39.33
2023-03-06T05:26:17.683Z,41.07
2023-03-06T05:29:03.230Z,43.07
2023-03-06T05:31:48.710Z,42.10
2023-03-06T05:34:34.507Z,41.07
2023-03-06T05:37:19.760Z,40.17
2023-03-06T05:40:06.776Z,39.50
2023-03-06T05:42:52.390Z,41.77
2023-03-06T05:45:39.177Z,38.47
2023-03-06T05:48:24.528Z,37.90
2023-03-06T05:51:11.339Z,43.70
2023-03-06T05:53:56.778Z,37.93
2023-03-06T05:56:42.985Z,37.60
2023-03-06T05:59:29.113Z,38.10
2023-03-06T06:02:14.720Z,40.13
2023-03-06T06:05:02.500Z,44.57
2023-03-06T06:07:48.247Z,39.73
2023-03-06T06:10:33.821Z,39.47
2023-03-06T06:13:19.460Z,40.63
2023-03-06T06:16:11.593Z,39.77
2023-03-06T06:18:57.720Z,44.13
2023-03-06T06:21:43.133Z,38.37
2023-03-06T06:24:28.671Z,38.63
2023-03-06T06:27:14.088Z,37.80
2023-03-06T06:29:59.626Z,44.40
2023-03-06T06:32:45.191Z,42.07
2023-03-06T06:35:30.786Z,45.37
2023-03-06T06:38:16.532Z,44.43
2023-03-06T06:41:35.725Z,36.30
2023-03-06T06:44:14.414Z,44.70
2023-03-06T06:47:21.943Z,39.93
2023-03-06T06:50:05.318Z,38.57
2023-03-06T06:52:50.817Z,40.80
2023-03-06T06:55:37.571Z,40.07
2023-03-06T06:58:22.932Z,44.20
2023-03-06T07:01:10.705Z,39.97
2023-03-06T07:03:56.526Z,43.37
2023-03-06T07:06:42.649Z,39.33
2023-03-06T07:09:30.261Z,40.67
2023-03-06T07:12:15.808Z,40.10
2023-03-06T07:15:01.305Z,42.73
2023-03-06T07:17:49.809Z,41.87
2023-03-06T07:20:36.126Z,38.70
2023-03-06T07:23:21.699Z,37.00
2023-03-06T07:26:07.843Z,41.53
2023-03-06T07:28:54.375Z,40.70
2023-03-06T07:31:40.091Z,42.53
2023-03-06T07:34:25.445Z,41.70
2023-03-06T07:37:11.616Z,42.70
2023-03-06T07:39:57.099Z,37.83
2023-03-06T07:42:42.535Z,34.27
2023-03-06T07:45:28.095Z,40.00
2023-03-06T07:48:14.980Z,40.93
2023-03-06T07:51:05.960Z,38.97
2023-03-06T07:53:51.686Z,41.47
2023-03-06T07:56:37.036Z,43.07
2023-03-06T07:59:22.767Z,41.77
2023-03-06T08:02:10.102Z,38.90
2023-03-06T08:04:56.596Z,43.60
2023-03-06T08:07:43.815Z,49.87
2023-03-06T08:10:29.262Z,43.93
2023-03-06T08:13:14.842Z,42.40
2023-03-06T08:16:00.444Z,43.13
2023-03-06T08:18:46.592Z,45.10
2023-03-06T08:21:32.530Z,45.33
2023-03-06T08:24:18.670Z,39.87
2023-03-06T08:27:04.269Z,42.20
2023-03-06T08:29:49.768Z,42.17
2023-03-06T08:32:36.484Z,45.17
2023-03-06T08:35:22.267Z,42.37
2023-03-06T08:38:07.673Z,43.23
2023-03-06T08:40:53.234Z,44.17
2023-03-06T08:43:38.831Z,41.77
2023-03-06T08:46:26.050Z,48.37
2023-03-06T08:49:13.381Z,42.43
2023-03-06T08:51:58.707Z,41.17
2023-03-06T08:54:44.213Z,42.47
2023-03-06T08:57:30.557Z,41.50
2023-03-06T09:00:17.009Z,41.13
2023-03-06T09:03:02.223Z,45.10
2023-03-06T09:05:47.602Z,43.90
2023-03-06T09:08:32.806Z,41.27
2023-03-06T09:11:19.369Z,42.17
2023-03-06T09:14:05.924Z,39.23
2023-03-06T09:16:51.418Z,41.73
2023-03-06T09:19:37.727Z,42.03
2023-03-06T09:22:23.444Z,42.47
2023-03-06T09:25:10.551Z,36.30
2023-03-06T09:28:10.074Z,38.87
2023-03-06T09:30:56.430Z,30.63
2023-03-06T09:33:41.997Z,32.90
2023-03-06T09:36:27.321Z,36.60
2023-03-06T09:39:12.980Z,35.57
2023-03-06T09:41:58.824Z,35.23
2023-03-06T09:45:02.285Z,32.30
2023-03-06T09:48:04.749Z,32.43
2023-03-06T09:51:08.384Z,36.40
2023-03-06T09:54:13.336Z,35.50
2023-03-06T09:56:58.987Z,29.77
2023-03-06T09:59:47.618Z,32.27
2023-03-06T10:02:41.124Z,30.30
2023-03-06T10:05:35.029Z,31.70
2023-03-06T10:08:30.458Z,26.63
2023-03-06T10:11:23.997Z,30.10
2023-03-06T10:14:28.851Z,33.20
2023-03-06T10:17:18.372Z,23.60
2023-03-06T10:20:30.190Z,32.50
2023-03-06T10:23:37.383Z,31.93
2023-03-06T10:26:32.789Z,32.27
2023-03-06T10:30:02.194Z,32.13
2023-03-06T10:33:07.523Z,35.27
2023-03-06T10:35:55.134Z,27.67
2023-03-06T10:38:42.139Z,31.53
2023-03-06T10:41:32.479Z,31.13
2023-03-06T10:44:19.911Z,26.23
2023-03-06T10:47:30.127Z,33.57
2023-03-06T10:50:27.928Z,31.17
2023-03-06T10:53:25.840Z,29.60
2023-03-06T10:56:11.387Z,28.60
2023-03-06T10:59:17.948Z,34.23
2023-03-06T11:02:41.132Z,26.30
2023-03-06T11:05:26.802Z,26.97
2023-03-06T11:08:22.480Z,25.00
2023-03-06T11:11:09.865Z,27.53
2023-03-06T11:13:59.124Z,24.75
2023-03-06T11:16:54.454Z,24.48
2023-03-06T11:19:39.879Z,27.40
2023-03-06T11:22:25.437Z,26.08
2023-03-06T11:25:15.731Z,31.98
2023-03-06T11:28:13.214Z,26.73
2023-03-06T11:31:07.081Z,25.98
2023-03-06T11:34:01.623Z,23.70
2023-03-06T11:37:07.271Z,28.08
2023-03-06T11:40:06.501Z,31.13
2023-03-06T11:42:56.085Z,22.75
2023-03-06T11:45:57.725Z,23.15
2023-03-06T11:49:16.971Z,23.77
2023-03-06T11:52:12.417Z,23.83
2023-03-06T11:54:58.084Z,19.52
2023-03-06T11:57:56.963Z,22.90
2023-03-06T12:00:55.738Z,18.95
2023-03-06T12:03:57.559Z,14.35
2023-03-06T12:07:18.738Z,18.88
2023-03-06T12:10:23.425Z,15.77
2023-03-06T12:13:27.843Z,16.17
2023-03-06T12:16:24.768Z,17.20
2023-03-06T12:19:29.698Z,16.23
2023-03-06T12:22:34.852Z,15.45
2023-03-06T12:28:56.227Z,17.80
2023-03-06T12:31:59.525Z,15.88
2023-03-06T12:35:11.774Z,16.90
2023-03-06T12:38:26.908Z,14.93
2023-03-06T12:41:49.922Z,17.15
2023-03-06T12:44:58.255Z,16.00
2023-03-06T12:47:46.863Z,14.32
2023-03-06T12:50:37.112Z,15.52
2023-03-06T12:53:28.262Z,15.68
2023-03-06T12:56:17.093Z,13.65
2023-03-06T12:59:02.780Z,14.52
2023-03-06T13:02:06.479Z,13.13
2023-03-06T13:04:55.123Z,14.77
2023-03-06T13:08:19.035Z,12.52
2023-03-06T13:11:42.798Z,11.23
2023-03-06T13:14:30.780Z,12.48
2023-03-06T13:17:28.342Z,14.40
2023-03-06T13:20:13.843Z,13.88
2023-03-06T13:23:19.567Z,12.35
2023-03-06T13:26:08.760Z,11.40
2023-03-06T13:28:57.665Z,12.93
2023-03-06T13:31:43.087Z,11.07
2023-03-06T13:34:31.649Z,13.45
2023-03-06T13:37:17.108Z,12.55
2023-03-06T13:40:06.569Z,10.55
2023-03-06T13:42:52.040Z,10.73
2023-03-06T13:45:41.991Z,11.38
2023-03-06T13:48:43.674Z,12.27
2023-03-06T13:51:35.776Z,10.57
2023-03-06T13:54:30.330Z,11.23
2023-03-06T13:57:24.631Z,10.10
2023-03-06T14:03:40.036Z,10.20
2023-03-06T14:06:34.532Z,9.48
2023-03-06T14:12:17.778Z,8.18
2023-03-06T14:15:15.672Z,12.15
2023-03-06T14:18:07.257Z,10.30
2023-03-06T14:20:59.361Z,9.90
2023-03-06T14:23:46.423Z,8.90
2023-03-06T14:26:42.213Z,10.55
2023-03-06T14:29:29.392Z,9.77
2023-03-06T14:32:21.402Z,9.98
2023-03-06T14:35:18.936Z,11.13
2023-03-06T14:38:08.724Z,11.43
2023-03-06T14:40:54.225Z,9.30
2023-03-06T14:43:39.394Z,11.10
2023-03-06T14:46:24.976Z,10.35
2023-03-06T14:49:12.159Z,12.27
2023-03-06T14:52:02.334Z,11.02
2023-03-06T14:54:48.737Z,12.05
2023-03-06T14:57:34.148Z,10.15
2023-03-06T15:00:22.469Z,7.95
2023-03-06T15:03:28.126Z,9.25
2023-03-06T15:06:29.774Z,9.95
2023-03-06T15:09:28.777Z,8.52
2023-03-06T15:12:35.250Z,10.93
2023-03-06T15:15:25.696Z,9.05
2023-03-06T15:18:36.201Z,7.80
2023-03-06T15:21:23.677Z,12.45
2023-03-06T15:24:35.847Z,9.68
2023-03-06T15:27:29.552Z,8.30
2023-03-06T15:30:25.583Z,11.20
2023-03-06T15:33:26.532Z,13.70
2023-03-06T15:36:27.662Z,9.13
2023-03-06T15:39:34.601Z,8.52
2023-03-06T15:42:26.312Z,9.98
2023-03-06T15:45:18.926Z,8.77
2023-03-06T15:48:15.793Z,8.95
2023-03-06T15:51:01.820Z,7.75
2023-03-06T15:53:48.026Z,8.50
2023-03-06T15:56:37.039Z,8.10
2023-03-06T15:59:31.369Z,8.07
2023-03-06T16:02:19.852Z,9.52
2023-03-06T16:05:15.842Z,8.88
2023-03-06T16:08:01.048Z,8.95
2023-03-06T16:10:47.880Z,10.07
2023-03-06T16:13:33.897Z,8.07
2023-03-06T16:16:23.509Z,10.30
2023-03-06T16:19:25.327Z,8.90
2023-03-06T16:22:12.001Z,10.30
2023-03-06T16:24:57.133Z,9.77
2023-03-06T16:27:47.915Z,8.63
2023-03-06T16:30:35.472Z,11.18
2023-03-06T16:33:21.171Z,9.27
2023-03-06T16:36:13.321Z,7.75
2023-03-06T16:38:58.764Z,9.80
2023-03-06T16:41:45.952Z,8.15
2023-03-06T16:44:31.302Z,9.57
2023-03-06T16:47:17.165Z,11.65
2023-03-06T16:50:03.877Z,13.13
2023-03-06T16:52:49.974Z,11.38
2023-03-06T16:55:35.646Z,9.10
2023-03-06T16:58:21.005Z,9.95
2023-03-06T17:01:07.299Z,12.07
2023-03-06T17:03:52.908Z,8.25
2023-03-06T17:06:39.106Z,8.82
2023-03-06T17:09:24.353Z,9.40
2023-03-06T17:12:10.084Z,10.50
2023-03-06T17:14:55.912Z,11.48
2023-03-06T17:17:41.334Z,11.45
2023-03-06T17:20:26.816Z,12.73
2023-03-06T17:23:12.332Z,11.35
2023-03-06T17:26:10.050Z,9.38
2023-03-06T17:28:56.200Z,10.35
2023-03-06T17:31:41.833Z,10.30
2023-03-06T17:34:27.288Z,13.50
2023-03-06T17:37:12.551Z,11.23
2023-03-06T17:39:58.008Z,12.48
2023-03-06T17:42:43.815Z,12.77
2023-03-06T17:45:29.579Z,11.00
2023-03-06T17:48:15.060Z,10.07
2023-03-06T17:51:00.760Z,11.40
2023-03-06T17:53:46.319Z,12.75
2023-03-06T17:56:31.910Z,12.70
2023-03-06T17:59:17.670Z,15.85
2023-03-06T18:02:03.408Z,11.23
2023-03-06T18:04:49.217Z,12.05
2023-03-06T18:07:34.690Z,11.88
2023-03-06T18:10:20.393Z,10.35
2023-03-06T18:13:06.130Z,10.73
2023-03-06T18:15:51.276Z,11.50
2023-03-06T18:18:36.910Z,13.40
2023-03-06T18:21:23.774Z,12.93
2023-03-06T18:24:11.403Z,12.10
2023-03-06T18:26:57.062Z,13.18
2023-03-06T18:29:42.499Z,13.57
2023-03-06T18:32:28.115Z,13.48
2023-03-06T18:35:13.645Z,12.38
2023-03-06T18:37:59.129Z,11.55
2023-03-06T18:40:44.902Z,11.15
2023-03-06T18:43:30.088Z,14.27
2023-03-06T18:46:15.650Z,12.27
2023-03-06T18:49:01.666Z,12.87
2023-03-06T18:51:49.149Z,13.47
2023-03-06T18:54:34.893Z,12.87
2023-03-06T18:57:20.462Z,13.37
2023-03-06T19:00:07.801Z,14.50
2023-03-06T19:02:53.080Z,18.57
2023-03-06T19:05:40.485Z,15.00
2023-03-06T19:08:26.058Z,12.23
2023-03-06T19:11:17.404Z,15.57
2023-03-06T19:14:02.825Z,13.67
2023-03-06T19:16:48.163Z,18.40
2023-03-06T19:19:33.467Z,12.10
2023-03-06T19:22:18.844Z,11.70
2023-03-06T19:25:04.795Z,13.00
2023-03-06T19:27:50.153Z,12.03
2023-03-06T19:30:39.390Z,12.43
2023-03-06T19:33:24.966Z,13.10
2023-03-06T19:36:13.620Z,12.00
2023-03-06T19:39:04.311Z,11.60
2023-03-06T19:41:49.872Z,11.87
2023-03-06T19:44:35.196Z,12.23
2023-03-06T19:47:20.804Z,10.17
2023-03-06T19:50:06.734Z,13.50
2023-03-06T19:52:52.551Z,13.30
2023-03-06T19:55:38.859Z,14.43
2023-03-06T19:58:24.110Z,13.90
2023-03-06T20:01:15.563Z,13.53
2023-03-06T20:04:01.123Z,11.30
2023-03-06T20:06:49.038Z,13.83
2023-03-06T20:09:34.461Z,14.93
2023-03-06T20:12:19.910Z,15.13
2023-03-06T20:15:06.034Z,11.90
2023-03-06T20:17:51.224Z,11.50
2023-03-06T20:20:39.189Z,11.13
2023-03-06T20:23:24.760Z,11.97
2023-03-06T20:26:13.037Z,16.77
2023-03-06T20:28:59.224Z,12.30
2023-03-06T20:31:44.710Z,12.10
2023-03-06T20:34:30.461Z,12.50
2023-03-06T20:37:15.736Z,11.90
2023-03-06T20:40:01.401Z,11.63
2023-03-06T20:42:46.968Z,13.03
2023-03-06T20:45:32.723Z,13.80
2023-03-06T20:48:18.406Z,12.70
2023-03-06T20:51:08.764Z,13.27
2023-03-06T20:53:55.618Z,13.77
2023-03-06T20:56:42.529Z,11.63
2023-03-06T20:59:28.045Z,14.43
2023-03-06T21:02:14.908Z,14.07
2023-03-06T21:05:00.935Z,13.80
2023-03-06T21:07:46.171Z,13.30
2023-03-06T21:10:31.934Z,13.30
2023-03-06T21:13:17.428Z,15.10
2023-03-06T21:16:08.084Z,15.93
2023-03-06T21:18:58.810Z,14.47
2023-03-06T21:21:44.078Z,13.80
2023-03-06T21:24:29.731Z,14.37
2023-03-06T21:27:14.968Z,13.77
2023-03-06T21:30:00.618Z,16.23
2023-03-06T21:32:45.850Z,14.67
2023-03-06T21:35:31.276Z,15.57
2023-03-06T21:38:17.455Z,13.60
2023-03-06T21:41:08.483Z,14.27
2023-03-06T21:43:59.217Z,13.87
2023-03-06T21:46:44.507Z,13.27
2023-03-06T21:49:30.224Z,13.90
2023-03-06T21:52:15.441Z,15.13
2023-03-06T21:55:01.184Z,13.90
2023-03-06T21:57:54.160Z,16.47
2023-03-06T22:00:39.421Z,13.93
2023-03-06T22:03:25.432Z,15.33
2023-03-06T22:06:17.197Z,13.83
2023-03-06T22:09:04.225Z,13.90
2023-03-06T22:11:49.772Z,13.97
2023-03-06T22:14:34.958Z,13.83
2023-03-06T22:17:20.652Z,14.00
2023-03-06T22:20:06.688Z,12.43
2023-03-06T22:22:51.931Z,11.90
2023-03-06T22:25:37.488Z,12.70
2023-03-06T22:28:22.702Z,13.87
2023-03-06T22:31:14.288Z,14.37
2023-03-06T22:34:01.635Z,13.53
2023-03-06T22:36:47.082Z,13.77
2023-03-06T22:39:32.784Z,13.60
2023-03-06T22:42:18.253Z,13.73
2023-03-06T22:45:04.088Z,13.07
2023-03-06T22:47:51.980Z,12.97
2023-03-06T22:50:38.902Z,13.77
2023-03-06T22:53:24.457Z,12.50
2023-03-06T22:56:13.072Z,14.57
2023-03-06T22:58:59.494Z,13.50
2023-03-06T23:01:44.797Z,13.57
2023-03-06T23:04:30.489Z,14.97
2023-03-06T23:07:15.511Z,14.20
2023-03-06T23:10:00.984Z,19.43
2023-03-06T23:12:46.553Z,16.27
2023-03-06T23:15:32.458Z,12.73
2023-03-06T23:18:18.161Z,17.53
2023-03-06T23:21:29.923Z,14.80
2023-03-06T23:24:16.963Z,16.97
2023-03-06T23:27:03.242Z,14.20
2023-03-06T23:29:55.327Z,13.17
2023-03-06T23:32:40.852Z,16.23
2023-03-06T23:35:26.468Z,13.73
2023-03-06T23:38:11.984Z,13.43
2023-03-06T23:41:02.217Z,15.67
2023-03-06T23:43:49.142Z,14.97
2023-03-06T23:46:34.366Z,13.47
2023-03-06T23:49:21.876Z,15.90
2023-03-06T23:52:07.387Z,14.27
2023-03-06T23:54:52.733Z,16.53
2023-03-06T23:57:38.404Z,17.73
